sensor_id;sensor_type;location;lat;lon;timestamp;P1;durP1;ratioP1;P2;durP2;ratioP2
33579;SDS011;19909;43.644;-79.438;2023-03-31T00:01:49;1.20;;;0.90;;
33579;SDS011;19909;43.644;-79.438;2023-03-31T00:04:16;2.13;;;1.02;;
33579;SDS011;19909;43.644;-79.438;2023-03-31T00:06:43;1.40;;;1.13;;
33579;SDS011;19909;43.644;-79.438;2023-03-31T00:11:40;1.50;;;1.00;;
33579;SDS011;19909;43.644;-79.438;2023-03-31T00:14:06;1.17;;;0.85;;
33579;SDS011;19909;43.644;-79.438;2023-03-31T00:16:34;1.27;;;0.73;;
33579;SDS011;19909;43.644;-79.438;2023-03-31T00:19:02;0.80;;;0.70;;
33579;SDS011;19909;43.644;-79.438;2023-03-31T00:21:29;1.77;;;0.95;;
33579;SDS011;19909;43.644;-79.438;2023-03-31T00:24:08;1.05;;;0.70;;
33579;SDS011;19909;43.644;-79.438;2023-03-31T00:26:35;1.15;;;0.80;;
33579;SDS011;19909;43.644;-79.438;2023-03-31T00:29:03;1.40;;;0.98;;
33579;SDS011;19909;43.644;-79.438;2023-03-31T00:31:31;0.95;;;0.60;;
33579;SDS011;19909;43.644;-79.438;2023-03-31T00:33:57;1.27;;;0.80;;
33579;SDS011;19909;43.644;-79.438;2023-03-31T00:36:24;0.80;;;0.80;;
33579;SDS011;19909;43.644;-79.438;2023-03-31T00:38:54;0.90;;;0.60;;
33579;SDS011;19909;43.644;-79.438;2023-03-31T00:41:23;1.15;;;0.68;;
33579;SDS011;19909;43.644;-79.438;2023-03-31T00:46:36;1.70;;;0.80;;
33579;SDS011;19909;43.644;-79.438;2023-03-31T00:49:03;1.00;;;0.70;;
33579;SDS011;19909;43.644;-79.438;2023-03-31T00:51:30;1.23;;;1.02;;
33579;SDS011;19909;43.644;-79.438;2023-03-31T00:54:00;1.80;;;0.75;;
33579;SDS011;19909;43.644;-79.438;2023-03-31T00:56:36;1.48;;;0.95;;
33579;SDS011;19909;43.644;-79.438;2023-03-31T00:59:06;1.25;;;0.70;;
33579;SDS011;19909;43.644;-79.438;2023-03-31T01:01:35;1.00;;;0.65;;
33579;SDS011;19909;43.644;-79.438;2023-03-31T01:04:07;1.48;;;0.70;;
33579;SDS011;19909;43.644;-79.438;2023-03-31T01:06:36;0.77;;;0.70;;
33579;SDS011;19909;43.644;-79.438;2023-03-31T01:09:14;0.70;;;0.57;;
33579;SDS011;19909;43.644;-79.438;2023-03-31T01:11:41;0.98;;;0.70;;
33579;SDS011;19909;43.644;-79.438;2023-03-31T01:14:10;1.15;;;0.73;;
33579;SDS011;19909;43.644;-79.438;2023-03-31T01:16:37;1.25;;;0.80;;
33579;SDS011;19909;43.644;-79.438;2023-03-31T01:19:05;0.95;;;0.60;;
33579;SDS011;19909;43.644;-79.438;2023-03-31T01:27:56;1.92;;;0.68;;
33579;SDS011;19909;43.644;-79.438;2023-03-31T01:30:39;2.55;;;0.82;;
33579;SDS011;19909;43.644;-79.438;2023-03-31T01:39:00;1.10;;;0.52;;
33579;SDS011;19909;43.644;-79.438;2023-03-31T01:41:45;1.20;;;0.88;;
33579;SDS011;19909;43.644;-79.438;2023-03-31T01:49:47;0.73;;;0.60;;
33579;SDS011;19909;43.644;-79.438;2023-03-31T02:00:46;0.70;;;0.45;;
33579;SDS011;19909;43.644;-79.438;2023-03-31T02:03:23;0.93;;;0.50;;
33579;SDS011;19909;43.644;-79.438;2023-03-31T02:06:15;0.93;;;0.60;;
33579;SDS011;19909;43.644;-79.438;2023-03-31T02:08:48;1.70;;;0.60;;
33579;SDS011;19909;43.644;-79.438;2023-03-31T02:11:28;0.60;;;0.43;;
33579;SDS011;19909;43.644;-79.438;2023-03-31T02:13:56;1.23;;;0.70;;
33579;SDS011;19909;43.644;-79.438;2023-03-31T02:16:29;0.75;;;0.50;;
33579;SDS011;19909;43.644;-79.438;2023-03-31T02:18:58;1.13;;;0.80;;
33579;SDS011;19909;43.644;-79.438;2023-03-31T02:21:33;0.70;;;0.60;;
33579;SDS011;19909;43.644;-79.438;2023-03-31T02:24:04;0.68;;;0.50;;
33579;SDS011;19909;43.644;-79.438;2023-03-31T02:26:36;0.53;;;0.50;;
33579;SDS011;19909;43.644;-79.438;2023-03-31T02:29:08;1.10;;;0.52;;
33579;SDS011;19909;43.644;-79.438;2023-03-31T02:34:13;0.98;;;0.40;;
33579;SDS011;19909;43.644;-79.438;2023-03-31T02:36:40;1.10;;;0.50;;
33579;SDS011;19909;43.644;-79.438;2023-03-31T02:39:17;0.80;;;0.40;;
33579;SDS011;19909;43.644;-79.438;2023-03-31T02:41:47;2.50;;;0.57;;
33579;SDS011;19909;43.644;-79.438;2023-03-31T02:44:14;0.80;;;0.40;;
33579;SDS011;19909;43.644;-79.438;2023-03-31T02:46:42;2.53;;;0.57;;
33579;SDS011;19909;43.644;-79.438;2023-03-31T02:49:10;0.82;;;0.43;;
33579;SDS011;19909;43.644;-79.438;2023-03-31T03:00:17;1.85;;;0.50;;
33579;SDS011;19909;43.644;-79.438;2023-03-31T03:06:16;0.60;;;0.40;;
33579;SDS011;19909;43.644;-79.438;2023-03-31T03:16:57;0.65;;;0.57;;
33579;SDS011;19909;43.644;-79.438;2023-03-31T03:19:30;0.65;;;0.40;;
33579;SDS011;19909;43.644;-79.438;2023-03-31T03:21:57;0.30;;;0.20;;
33579;SDS011;19909;43.644;-79.438;2023-03-31T03:24:23;1.13;;;0.57;;
33579;SDS011;19909;43.644;-79.438;2023-03-31T03:26:54;0.95;;;0.43;;
33579;SDS011;19909;43.644;-79.438;2023-03-31T03:29:21;0.80;;;0.50;;
33579;SDS011;19909;43.644;-79.438;2023-03-31T03:31:48;0.98;;;0.70;;
33579;SDS011;19909;43.644;-79.438;2023-03-31T03:34:14;1.33;;;0.85;;
33579;SDS011;19909;43.644;-79.438;2023-03-31T03:36:42;0.82;;;0.40;;
33579;SDS011;19909;43.644;-79.438;2023-03-31T03:39:09;0.85;;;0.50;;
33579;SDS011;19909;43.644;-79.438;2023-03-31T03:41:36;0.77;;;0.50;;
33579;SDS011;19909;43.644;-79.438;2023-03-31T03:44:03;0.60;;;0.30;;
33579;SDS011;19909;43.644;-79.438;2023-03-31T03:46:29;0.90;;;0.30;;
33579;SDS011;19909;43.644;-79.438;2023-03-31T03:48:56;0.70;;;0.32;;
33579;SDS011;19909;43.644;-79.438;2023-03-31T03:51:22;0.90;;;0.57;;
33579;SDS011;19909;43.644;-79.438;2023-03-31T03:53:48;0.93;;;0.30;;
33579;SDS011;19909;43.644;-79.438;2023-03-31T03:56:14;1.25;;;0.57;;
33579;SDS011;19909;43.644;-79.438;2023-03-31T03:58:40;1.30;;;0.40;;
33579;SDS011;19909;43.644;-79.438;2023-03-31T04:01:07;0.50;;;0.40;;
33579;SDS011;19909;43.644;-79.438;2023-03-31T04:03:33;0.40;;;0.30;;
33579;SDS011;19909;43.644;-79.438;2023-03-31T04:05:59;0.90;;;0.50;;
33579;SDS011;19909;43.644;-79.438;2023-03-31T04:08:25;2.05;;;0.55;;
33579;SDS011;19909;43.644;-79.438;2023-03-31T04:10:52;0.65;;;0.50;;
33579;SDS011;19909;43.644;-79.438;2023-03-31T04:13:18;0.60;;;0.50;;
33579;SDS011;19909;43.644;-79.438;2023-03-31T04:15:45;0.98;;;0.52;;
33579;SDS011;19909;43.644;-79.438;2023-03-31T04:18:11;0.77;;;0.50;;
33579;SDS011;19909;43.644;-79.438;2023-03-31T04:20:48;0.50;;;0.38;;
33579;SDS011;19909;43.644;-79.438;2023-03-31T04:23:19;0.60;;;0.50;;
33579;SDS011;19909;43.644;-79.438;2023-03-31T04:25:48;1.15;;;0.63;;
33579;SDS011;19909;43.644;-79.438;2023-03-31T04:28:15;0.70;;;0.50;;
33579;SDS011;19909;43.644;-79.438;2023-03-31T04:30:41;1.30;;;0.40;;
33579;SDS011;19909;43.644;-79.438;2023-03-31T04:33:08;1.38;;;0.50;;
33579;SDS011;19909;43.644;-79.438;2023-03-31T04:35:34;0.45;;;0.40;;
33579;SDS011;19909;43.644;-79.438;2023-03-31T04:38:21;0.93;;;0.50;;
33579;SDS011;19909;43.644;-79.438;2023-03-31T04:40:49;1.33;;;0.60;;
33579;SDS011;19909;43.644;-79.438;2023-03-31T04:43:17;1.05;;;0.52;;
33579;SDS011;19909;43.644;-79.438;2023-03-31T04:45:44;1.15;;;0.52;;
33579;SDS011;19909;43.644;-79.438;2023-03-31T04:48:11;0.88;;;0.60;;
33579;SDS011;19909;43.644;-79.438;2023-03-31T04:50:38;0.88;;;0.50;;
33579;SDS011;19909;43.644;-79.438;2023-03-31T04:53:04;0.50;;;0.40;;
33579;SDS011;19909;43.644;-79.438;2023-03-31T04:55:30;1.35;;;0.57;;
33579;SDS011;19909;43.644;-79.438;2023-03-31T04:57:57;0.98;;;0.55;;
33579;SDS011;19909;43.644;-79.438;2023-03-31T05:00:23;1.15;;;0.40;;
33579;SDS011;19909;43.644;-79.438;2023-03-31T05:02:50;0.63;;;0.43;;
33579;SDS011;19909;43.644;-79.438;2023-03-31T05:05:17;0.75;;;0.50;;
33579;SDS011;19909;43.644;-79.438;2023-03-31T05:07:43;1.08;;;0.47;;
33579;SDS011;19909;43.644;-79.438;2023-03-31T05:10:10;1.02;;;0.57;;
33579;SDS011;19909;43.644;-79.438;2023-03-31T05:12:37;0.70;;;0.70;;
33579;SDS011;19909;43.644;-79.438;2023-03-31T05:15:04;1.27;;;0.57;;
33579;SDS011;19909;43.644;-79.438;2023-03-31T05:17:32;1.08;;;0.57;;
33579;SDS011;19909;43.644;-79.438;2023-03-31T05:19:59;1.08;;;0.50;;
33579;SDS011;19909;43.644;-79.438;2023-03-31T05:22:31;0.85;;;0.60;;
33579;SDS011;19909;43.644;-79.438;2023-03-31T05:24:59;1.27;;;0.52;;
33579;SDS011;19909;43.644;-79.438;2023-03-31T05:27:26;0.68;;;0.65;;
33579;SDS011;19909;43.644;-79.438;2023-03-31T05:29:52;0.57;;;0.50;;
33579;SDS011;19909;43.644;-79.438;2023-03-31T05:32:18;0.80;;;0.60;;
33579;SDS011;19909;43.644;-79.438;2023-03-31T05:34:44;0.55;;;0.50;;
33579;SDS011;19909;43.644;-79.438;2023-03-31T05:37:11;0.60;;;0.40;;
33579;SDS011;19909;43.644;-79.438;2023-03-31T05:39:37;1.27;;;0.63;;
33579;SDS011;19909;43.644;-79.438;2023-03-31T05:42:03;0.70;;;0.50;;
33579;SDS011;19909;43.644;-79.438;2023-03-31T05:44:30;1.48;;;0.60;;
33579;SDS011;19909;43.644;-79.438;2023-03-31T05:46:56;0.75;;;0.40;;
33579;SDS011;19909;43.644;-79.438;2023-03-31T05:49:22;0.55;;;0.40;;
33579;SDS011;19909;43.644;-79.438;2023-03-31T05:51:48;1.20;;;0.57;;
33579;SDS011;19909;43.644;-79.438;2023-03-31T05:54:15;0.75;;;0.40;;
33579;SDS011;19909;43.644;-79.438;2023-03-31T05:56:42;1.38;;;0.70;;
33579;SDS011;19909;43.644;-79.438;2023-03-31T05:59:08;1.10;;;0.50;;
33579;SDS011;19909;43.644;-79.438;2023-03-31T06:01:35;0.90;;;0.70;;
33579;SDS011;19909;43.644;-79.438;2023-03-31T06:04:01;0.82;;;0.40;;
33579;SDS011;19909;43.644;-79.438;2023-03-31T06:06:28;0.80;;;0.60;;
33579;SDS011;19909;43.644;-79.438;2023-03-31T06:08:54;0.70;;;0.38;;
33579;SDS011;19909;43.644;-79.438;2023-03-31T06:11:22;1.15;;;0.60;;
33579;SDS011;19909;43.644;-79.438;2023-03-31T06:13:48;0.68;;;0.52;;
33579;SDS011;19909;43.644;-79.438;2023-03-31T06:16:15;0.70;;;0.40;;
33579;SDS011;19909;43.644;-79.438;2023-03-31T06:18:43;0.57;;;0.40;;
33579;SDS011;19909;43.644;-79.438;2023-03-31T06:21:14;0.55;;;0.45;;
33579;SDS011;19909;43.644;-79.438;2023-03-31T06:23:42;0.70;;;0.40;;
33579;SDS011;19909;43.644;-79.438;2023-03-31T06:26:13;0.85;;;0.50;;
33579;SDS011;19909;43.644;-79.438;2023-03-31T06:28:41;0.77;;;0.50;;
33579;SDS011;19909;43.644;-79.438;2023-03-31T06:31:09;0.55;;;0.30;;
33579;SDS011;19909;43.644;-79.438;2023-03-31T06:33:38;0.70;;;0.40;;
33579;SDS011;19909;43.644;-79.438;2023-03-31T06:36:06;0.52;;;0.40;;
33579;SDS011;19909;43.644;-79.438;2023-03-31T06:38:34;0.65;;;0.45;;
33579;SDS011;19909;43.644;-79.438;2023-03-31T06:41:02;1.63;;;0.50;;
33579;SDS011;19909;43.644;-79.438;2023-03-31T06:43:30;0.43;;;0.38;;
33579;SDS011;19909;43.644;-79.438;2023-03-31T06:45:56;0.70;;;0.50;;
33579;SDS011;19909;43.644;-79.438;2023-03-31T06:48:22;1.27;;;0.40;;
33579;SDS011;19909;43.644;-79.438;2023-03-31T06:50:50;0.55;;;0.47;;
33579;SDS011;19909;43.644;-79.438;2023-03-31T06:53:20;0.60;;;0.47;;
33579;SDS011;19909;43.644;-79.438;2023-03-31T06:55:46;1.20;;;0.47;;
33579;SDS011;19909;43.644;-79.438;2023-03-31T06:58:13;0.75;;;0.50;;
33579;SDS011;19909;43.644;-79.438;2023-03-31T07:00:39;0.63;;;0.40;;
33579;SDS011;19909;43.644;-79.438;2023-03-31T07:03:05;0.77;;;0.50;;
33579;SDS011;19909;43.644;-79.438;2023-03-31T07:05:33;0.68;;;0.50;;
33579;SDS011;19909;43.644;-79.438;2023-03-31T07:07:59;1.88;;;1.13;;
33579;SDS011;19909;43.644;-79.438;2023-03-31T07:10:28;0.77;;;0.50;;
33579;SDS011;19909;43.644;-79.438;2023-03-31T07:12:56;1.05;;;0.50;;
33579;SDS011;19909;43.644;-79.438;2023-03-31T07:15:23;1.15;;;0.60;;
33579;SDS011;19909;43.644;-79.438;2023-03-31T07:17:50;0.55;;;0.30;;
33579;SDS011;19909;43.644;-79.438;2023-03-31T07:20:18;0.43;;;0.38;;
33579;SDS011;19909;43.644;-79.438;2023-03-31T07:22:45;0.70;;;0.40;;
33579;SDS011;19909;43.644;-79.438;2023-03-31T07:25:14;1.13;;;0.50;;
33579;SDS011;19909;43.644;-79.438;2023-03-31T07:27:42;0.75;;;0.40;;
33579;SDS011;19909;43.644;-79.438;2023-03-31T07:30:10;1.10;;;0.50;;
33579;SDS011;19909;43.644;-79.438;2023-03-31T07:32:41;0.80;;;0.40;;
33579;SDS011;19909;43.644;-79.438;2023-03-31T07:35:11;0.63;;;0.50;;
33579;SDS011;19909;43.644;-79.438;2023-03-31T07:37:38;0.50;;;0.40;;
33579;SDS011;19909;43.644;-79.438;2023-03-31T07:40:08;1.00;;;0.45;;
33579;SDS011;19909;43.644;-79.438;2023-03-31T07:42:37;0.77;;;0.50;;
33579;SDS011;19909;43.644;-79.438;2023-03-31T07:45:03;0.50;;;0.30;;
33579;SDS011;19909;43.644;-79.438;2023-03-31T07:47:30;0.50;;;0.25;;
33579;SDS011;19909;43.644;-79.438;2023-03-31T07:49:57;1.13;;;0.40;;
33579;SDS011;19909;43.644;-79.438;2023-03-31T07:52:23;0.68;;;0.35;;
33579;SDS011;19909;43.644;-79.438;2023-03-31T07:54:50;0.57;;;0.50;;
33579;SDS011;19909;43.644;-79.438;2023-03-31T07:57:16;0.50;;;0.40;;
33579;SDS011;19909;43.644;-79.438;2023-03-31T07:59:44;0.60;;;0.40;;
33579;SDS011;19909;43.644;-79.438;2023-03-31T08:02:11;1.40;;;0.57;;
33579;SDS011;19909;43.644;-79.438;2023-03-31T08:04:38;0.70;;;0.40;;
33579;SDS011;19909;43.644;-79.438;2023-03-31T08:07:08;0.80;;;0.40;;
33579;SDS011;19909;43.644;-79.438;2023-03-31T08:09:35;0.40;;;0.28;;
33579;SDS011;19909;43.644;-79.438;2023-03-31T08:12:02;0.47;;;0.30;;
33579;SDS011;19909;43.644;-79.438;2023-03-31T08:14:29;0.52;;;0.40;;
33579;SDS011;19909;43.644;-79.438;2023-03-31T08:16:56;0.50;;;0.30;;
33579;SDS011;19909;43.644;-79.438;2023-03-31T08:19:24;0.22;;;0.20;;
33579;SDS011;19909;43.644;-79.438;2023-03-31T08:21:51;0.45;;;0.35;;
33579;SDS011;19909;43.644;-79.438;2023-03-31T08:24:17;0.30;;;0.30;;
33579;SDS011;19909;43.644;-79.438;2023-03-31T08:26:44;0.28;;;0.28;;
33579;SDS011;19909;43.644;-79.438;2023-03-31T08:29:11;0.88;;;0.45;;
33579;SDS011;19909;43.644;-79.438;2023-03-31T08:31:37;0.68;;;0.35;;
33579;SDS011;19909;43.644;-79.438;2023-03-31T08:34:03;0.40;;;0.30;;
33579;SDS011;19909;43.644;-79.438;2023-03-31T08:36:30;0.85;;;0.30;;
33579;SDS011;19909;43.644;-79.438;2023-03-31T08:38:57;0.50;;;0.30;;
33579;SDS011;19909;43.644;-79.438;2023-03-31T08:41:33;0.47;;;0.30;;
33579;SDS011;19909;43.644;-79.438;2023-03-31T08:44:36;0.85;;;0.40;;
33579;SDS011;19909;43.644;-79.438;2023-03-31T08:47:09;0.40;;;0.30;;
33579;SDS011;19909;43.644;-79.438;2023-03-31T08:49:44;0.40;;;0.30;;
33579;SDS011;19909;43.644;-79.438;2023-03-31T08:52:28;0.50;;;0.35;;
33579;SDS011;19909;43.644;-79.438;2023-03-31T08:55:09;0.47;;;0.20;;
33579;SDS011;19909;43.644;-79.438;2023-03-31T08:57:55;0.60;;;0.30;;
33579;SDS011;19909;43.644;-79.438;2023-03-31T09:06:34;0.25;;;0.22;;
33579;SDS011;19909;43.644;-79.438;2023-03-31T09:09:12;0.90;;;0.30;;
33579;SDS011;19909;43.644;-79.438;2023-03-31T09:11:53;0.95;;;0.60;;
33579;SDS011;19909;43.644;-79.438;2023-03-31T09:14:26;0.80;;;0.38;;
33579;SDS011;19909;43.644;-79.438;2023-03-31T09:19:40;0.38;;;0.28;;
33579;SDS011;19909;43.644;-79.438;2023-03-31T09:22:32;0.77;;;0.30;;
33579;SDS011;19909;43.644;-79.438;2023-03-31T09:25:25;0.50;;;0.35;;
33579;SDS011;19909;43.644;-79.438;2023-03-31T09:27:55;0.47;;;0.35;;
33579;SDS011;19909;43.644;-79.438;2023-03-31T09:30:25;0.85;;;0.47;;
33579;SDS011;19909;43.644;-79.438;2023-03-31T09:35:43;0.32;;;0.30;;
33579;SDS011;19909;43.644;-79.438;2023-03-31T09:38:10;0.63;;;0.30;;
33579;SDS011;19909;43.644;-79.438;2023-03-31T09:40:37;0.30;;;0.25;;
33579;SDS011;19909;43.644;-79.438;2023-03-31T09:46:12;0.30;;;0.30;;
33579;SDS011;19909;43.644;-79.438;2023-03-31T09:48:54;0.50;;;0.25;;
33579;SDS011;19909;43.644;-79.438;2023-03-31T09:51:44;1.08;;;0.45;;
33579;SDS011;19909;43.644;-79.438;2023-03-31T09:57:01;0.57;;;0.40;;
33579;SDS011;19909;43.644;-79.438;2023-03-31T09:59:36;0.82;;;0.25;;
33579;SDS011;19909;43.644;-79.438;2023-03-31T10:02:03;0.40;;;0.30;;
33579;SDS011;19909;43.644;-79.438;2023-03-31T10:04:45;1.05;;;0.40;;
33579;SDS011;19909;43.644;-79.438;2023-03-31T10:07:12;0.30;;;0.30;;
33579;SDS011;19909;43.644;-79.438;2023-03-31T10:09:45;0.60;;;0.40;;
33579;SDS011;19909;43.644;-79.438;2023-03-31T10:12:15;0.50;;;0.40;;
33579;SDS011;19909;43.644;-79.438;2023-03-31T10:14:48;0.95;;;0.30;;
33579;SDS011;19909;43.644;-79.438;2023-03-31T10:17:26;0.73;;;0.35;;
33579;SDS011;19909;43.644;-79.438;2023-03-31T10:19:53;0.57;;;0.40;;
33579;SDS011;19909;43.644;-79.438;2023-03-31T10:25:06;1.33;;;0.30;;
33579;SDS011;19909;43.644;-79.438;2023-03-31T10:27:46;0.60;;;0.32;;
33579;SDS011;19909;43.644;-79.438;2023-03-31T10:30:27;0.70;;;0.30;;
33579;SDS011;19909;43.644;-79.438;2023-03-31T10:33:12;0.70;;;0.43;;
33579;SDS011;19909;43.644;-79.438;2023-03-31T10:35:41;0.63;;;0.30;;
33579;SDS011;19909;43.644;-79.438;2023-03-31T10:38:14;1.50;;;0.40;;
33579;SDS011;19909;43.644;-79.438;2023-03-31T10:40:57;0.85;;;0.47;;
33579;SDS011;19909;43.644;-79.438;2023-03-31T10:43:26;0.40;;;0.40;;
33579;SDS011;19909;43.644;-79.438;2023-03-31T10:45:58;0.70;;;0.52;;
33579;SDS011;19909;43.644;-79.438;2023-03-31T10:48:26;0.28;;;0.20;;
33579;SDS011;19909;43.644;-79.438;2023-03-31T10:50:59;0.52;;;0.40;;
33579;SDS011;19909;43.644;-79.438;2023-03-31T10:53:46;2.90;;;0.77;;
33579;SDS011;19909;43.644;-79.438;2023-03-31T11:15:45;0.20;;;0.20;;
33579;SDS011;19909;43.644;-79.438;2023-03-31T11:23:40;0.85;;;0.40;;
33579;SDS011;19909;43.644;-79.438;2023-03-31T11:36:42;0.80;;;0.40;;
33579;SDS011;19909;43.644;-79.438;2023-03-31T11:39:23;0.70;;;0.32;;
33579;SDS011;19909;43.644;-79.438;2023-03-31T11:42:02;0.40;;;0.32;;
33579;SDS011;19909;43.644;-79.438;2023-03-31T11:44:37;0.40;;;0.32;;
33579;SDS011;19909;43.644;-79.438;2023-03-31T11:47:10;0.57;;;0.45;;
33579;SDS011;19909;43.644;-79.438;2023-03-31T11:49:46;1.02;;;0.52;;
33579;SDS011;19909;43.644;-79.438;2023-03-31T11:52:18;0.35;;;0.30;;
33579;SDS011;19909;43.644;-79.438;2023-03-31T12:00:37;0.98;;;0.30;;
33579;SDS011;19909;43.644;-79.438;2023-03-31T12:05:54;0.73;;;0.45;;
33579;SDS011;19909;43.644;-79.438;2023-03-31T12:11:37;0.60;;;0.50;;
33579;SDS011;19909;43.644;-79.438;2023-03-31T12:16:46;0.75;;;0.40;;
33579;SDS011;19909;43.644;-79.438;2023-03-31T12:21:57;0.90;;;0.43;;
33579;SDS011;19909;43.644;-79.438;2023-03-31T12:24:35;0.93;;;0.40;;
33579;SDS011;19909;43.644;-79.438;2023-03-31T12:27:04;0.30;;;0.30;;
33579;SDS011;19909;43.644;-79.438;2023-03-31T12:29:47;1.20;;;0.60;;
33579;SDS011;19909;43.644;-79.438;2023-03-31T12:32:37;0.25;;;0.25;;
33579;SDS011;19909;43.644;-79.438;2023-03-31T12:38:15;0.70;;;0.50;;
33579;SDS011;19909;43.644;-79.438;2023-03-31T12:43:49;0.80;;;0.45;;
33579;SDS011;19909;43.644;-79.438;2023-03-31T12:46:34;0.57;;;0.43;;
33579;SDS011;19909;43.644;-79.438;2023-03-31T13:04:40;1.60;;;0.73;;
33579;SDS011;19909;43.644;-79.438;2023-03-31T13:09:56;0.60;;;0.55;;
33579;SDS011;19909;43.644;-79.438;2023-03-31T13:12:38;0.60;;;0.50;;
33579;SDS011;19909;43.644;-79.438;2023-03-31T13:15:05;0.52;;;0.40;;
33579;SDS011;19909;43.644;-79.438;2023-03-31T13:17:38;1.27;;;0.50;;
33579;SDS011;19909;43.644;-79.438;2023-03-31T13:27:55;0.90;;;0.40;;
33579;SDS011;19909;43.644;-79.438;2023-03-31T13:33:08;0.63;;;0.50;;
33579;SDS011;19909;43.644;-79.438;2023-03-31T13:35:40;0.95;;;0.50;;
33579;SDS011;19909;43.644;-79.438;2023-03-31T13:41:26;0.60;;;0.50;;
33579;SDS011;19909;43.644;-79.438;2023-03-31T13:46:58;0.90;;;0.40;;
33579;SDS011;19909;43.644;-79.438;2023-03-31T13:49:49;0.38;;;0.38;;
33579;SDS011;19909;43.644;-79.438;2023-03-31T13:52:50;0.77;;;0.50;;
33579;SDS011;19909;43.644;-79.438;2023-03-31T14:00:46;1.00;;;0.50;;
33579;SDS011;19909;43.644;-79.438;2023-03-31T14:09:31;1.13;;;0.45;;
33579;SDS011;19909;43.644;-79.438;2023-03-31T14:12:02;2.33;;;0.55;;
33579;SDS011;19909;43.644;-79.438;2023-03-31T14:15:04;2.40;;;0.60;;
33579;SDS011;19909;43.644;-79.438;2023-03-31T14:17:38;0.63;;;0.40;;
33579;SDS011;19909;43.644;-79.438;2023-03-31T14:20:21;1.85;;;0.75;;
33579;SDS011;19909;43.644;-79.438;2023-03-31T14:23:08;2.47;;;1.00;;
33579;SDS011;19909;43.644;-79.438;2023-03-31T14:25:49;2.47;;;0.80;;
33579;SDS011;19909;43.644;-79.438;2023-03-31T14:28:30;2.42;;;0.63;;
33579;SDS011;19909;43.644;-79.438;2023-03-31T14:38:50;4.00;;;1.13;;
33579;SDS011;19909;43.644;-79.438;2023-03-31T14:41:17;3.70;;;1.45;;
33579;SDS011;19909;43.644;-79.438;2023-03-31T14:43:48;4.22;;;1.23;;
33579;SDS011;19909;43.644;-79.438;2023-03-31T14:46:20;2.00;;;0.75;;
33579;SDS011;19909;43.644;-79.438;2023-03-31T14:48:47;3.80;;;1.48;;
33579;SDS011;19909;43.644;-79.438;2023-03-31T14:51:24;6.47;;;1.48;;
33579;SDS011;19909;43.644;-79.438;2023-03-31T14:53:58;9.45;;;1.77;;
33579;SDS011;19909;43.644;-79.438;2023-03-31T14:56:29;5.28;;;1.45;;
33579;SDS011;19909;43.644;-79.438;2023-03-31T14:59:02;7.18;;;1.48;;
33579;SDS011;19909;43.644;-79.438;2023-03-31T15:01:32;7.43;;;1.60;;
33579;SDS011;19909;43.644;-79.438;2023-03-31T15:04:08;7.32;;;1.30;;
33579;SDS011;19909;43.644;-79.438;2023-03-31T15:06:37;4.57;;;1.33;;
33579;SDS011;19909;43.644;-79.438;2023-03-31T15:09:06;10.73;;;1.73;;
33579;SDS011;19909;43.644;-79.438;2023-03-31T15:11:36;5.60;;;1.30;;
33579;SDS011;19909;43.644;-79.438;2023-03-31T15:14:03;7.80;;;1.23;;
33579;SDS011;19909;43.644;-79.438;2023-03-31T15:16:34;7.05;;;1.25;;
33579;SDS011;19909;43.644;-79.438;2023-03-31T15:24:12;8.32;;;1.40;;
33579;SDS011;19909;43.644;-79.438;2023-03-31T15:26:48;4.03;;;1.30;;
33579;SDS011;19909;43.644;-79.438;2023-03-31T15:29:28;5.53;;;1.77;;
33579;SDS011;19909;43.644;-79.438;2023-03-31T15:32:01;5.03;;;1.23;;
33579;SDS011;19909;43.644;-79.438;2023-03-31T15:34:31;3.55;;;1.35;;
33579;SDS011;19909;43.644;-79.438;2023-03-31T15:37:00;9.70;;;1.70;;
33579;SDS011;19909;43.644;-79.438;2023-03-31T15:39:29;6.43;;;1.25;;
33579;SDS011;19909;43.644;-79.438;2023-03-31T15:41:58;7.20;;;1.27;;
33579;SDS011;19909;43.644;-79.438;2023-03-31T15:47:21;8.30;;;1.40;;
33579;SDS011;19909;43.644;-79.438;2023-03-31T15:52:21;4.72;;;1.27;;
33579;SDS011;19909;43.644;-79.438;2023-03-31T15:54:58;3.83;;;0.80;;
33579;SDS011;19909;43.644;-79.438;2023-03-31T15:57:30;5.55;;;1.17;;
33579;SDS011;19909;43.644;-79.438;2023-03-31T16:00:00;1.67;;;1.08;;
33579;SDS011;19909;43.644;-79.438;2023-03-31T16:02:37;2.97;;;1.10;;
33579;SDS011;19909;43.644;-79.438;2023-03-31T16:05:29;3.15;;;1.10;;
33579;SDS011;19909;43.644;-79.438;2023-03-31T16:08:13;4.72;;;1.00;;
33579;SDS011;19909;43.644;-79.438;2023-03-31T16:10:46;3.92;;;1.20;;
33579;SDS011;19909;43.644;-79.438;2023-03-31T16:13:16;3.05;;;1.15;;
33579;SDS011;19909;43.644;-79.438;2023-03-31T16:15:48;3.60;;;1.00;;
33579;SDS011;19909;43.644;-79.438;2023-03-31T16:18:27;2.70;;;1.07;;
33579;SDS011;19909;43.644;-79.438;2023-03-31T16:20:58;3.08;;;0.70;;
33579;SDS011;19909;43.644;-79.438;2023-03-31T16:23:29;3.38;;;0.80;;
33579;SDS011;19909;43.644;-79.438;2023-03-31T16:25:58;3.83;;;0.90;;
33579;SDS011;19909;43.644;-79.438;2023-03-31T16:28:26;3.80;;;1.02;;
33579;SDS011;19909;43.644;-79.438;2023-03-31T16:30:55;1.90;;;0.90;;
33579;SDS011;19909;43.644;-79.438;2023-03-31T16:33:26;1.85;;;0.90;;
33579;SDS011;19909;43.644;-79.438;2023-03-31T16:35:54;1.33;;;0.80;;
33579;SDS011;19909;43.644;-79.438;2023-03-31T16:38:21;1.95;;;0.80;;
33579;SDS011;19909;43.644;-79.438;2023-03-31T16:40:52;3.05;;;1.00;;
33579;SDS011;19909;43.644;-79.438;2023-03-31T16:43:27;1.58;;;0.77;;
33579;SDS011;19909;43.644;-79.438;2023-03-31T16:45:58;1.67;;;0.82;;
33579;SDS011;19909;43.644;-79.438;2023-03-31T16:48:27;0.73;;;0.60;;
33579;SDS011;19909;43.644;-79.438;2023-03-31T16:50:59;2.15;;;0.85;;
33579;SDS011;19909;43.644;-79.438;2023-03-31T16:53:30;2.33;;;1.13;;
33579;SDS011;19909;43.644;-79.438;2023-03-31T16:55:58;1.63;;;1.20;;
33579;SDS011;19909;43.644;-79.438;2023-03-31T16:58:24;1.40;;;0.90;;
33579;SDS011;19909;43.644;-79.438;2023-03-31T17:00:56;2.00;;;1.02;;
33579;SDS011;19909;43.644;-79.438;2023-03-31T17:03:22;1.40;;;0.90;;
33579;SDS011;19909;43.644;-79.438;2023-03-31T17:05:50;1.95;;;1.05;;
33579;SDS011;19909;43.644;-79.438;2023-03-31T17:08:19;2.42;;;1.02;;
33579;SDS011;19909;43.644;-79.438;2023-03-31T17:10:52;2.60;;;1.05;;
33579;SDS011;19909;43.644;-79.438;2023-03-31T17:13:27;1.77;;;0.77;;
33579;SDS011;19909;43.644;-79.438;2023-03-31T17:15:57;2.17;;;0.80;;
33579;SDS011;19909;43.644;-79.438;2023-03-31T17:18:24;3.50;;;0.85;;
33579;SDS011;19909;43.644;-79.438;2023-03-31T17:20:51;1.98;;;0.82;;
33579;SDS011;19909;43.644;-79.438;2023-03-31T17:23:20;0.98;;;0.77;;
33579;SDS011;19909;43.644;-79.438;2023-03-31T17:25:47;2.90;;;1.10;;
33579;SDS011;19909;43.644;-79.438;2023-03-31T17:28:14;1.80;;;1.48;;
33579;SDS011;19909;43.644;-79.438;2023-03-31T17:30:42;1.50;;;0.90;;
33579;SDS011;19909;43.644;-79.438;2023-03-31T17:33:12;2.72;;;1.13;;
33579;SDS011;19909;43.644;-79.438;2023-03-31T17:35:39;1.17;;;0.80;;
33579;SDS011;19909;43.644;-79.438;2023-03-31T17:38:06;1.30;;;0.95;;
33579;SDS011;19909;43.644;-79.438;2023-03-31T17:40:34;1.52;;;0.82;;
33579;SDS011;19909;43.644;-79.438;2023-03-31T17:43:00;0.82;;;0.65;;
33579;SDS011;19909;43.644;-79.438;2023-03-31T17:45:28;0.93;;;0.55;;
33579;SDS011;19909;43.644;-79.438;2023-03-31T17:47:57;0.90;;;0.70;;
33579;SDS011;19909;43.644;-79.438;2023-03-31T17:50:24;0.90;;;0.70;;
33579;SDS011;19909;43.644;-79.438;2023-03-31T17:52:51;1.15;;;0.95;;
33579;SDS011;19909;43.644;-79.438;2023-03-31T17:55:17;2.65;;;0.98;;
33579;SDS011;19909;43.644;-79.438;2023-03-31T17:57:44;1.50;;;0.70;;
33579;SDS011;19909;43.644;-79.438;2023-03-31T18:00:10;1.30;;;0.80;;